sensor_id;sensor_type;location;lat;lon;timestamp;P1;durP1;ratioP1;P2;durP2;ratioP2
22046;SDS011;11187;49.412;20.956;2023-08-20T00:01:18;41.13;;;35.72;;
22046;SDS011;11187;49.412;20.956;2023-08-20T00:04:08;36.08;;;32.47;;
22046;SDS011;11187;49.412;20.956;2023-08-20T00:06:42;27.65;;;24.65;;
22046;SDS011;11187;49.412;20.956;2023-08-20T00:09:29;31.98;;;28.73;;
22046;SDS011;11187;49.412;20.956;2023-08-20T00:12:03;35.17;;;28.23;;
22046;SDS011;11187;49.412;20.956;2023-08-20T00:14:58;33.88;;;30.67;;
22046;SDS011;11187;49.412;20.956;2023-08-20T00:17:54;36.58;;;32.97;;
22046;SDS011;11187;49.412;20.956;2023-08-20T00:20:48;36.72;;;32.80;;
22046;SDS011;11187;49.412;20.956;2023-08-20T00:23:42;35.70;;;32.55;;
22046;SDS011;11187;49.412;20.956;2023-08-20T00:26:36;34.75;;;31.20;;
22046;SDS011;11187;49.412;20.956;2023-08-20T00:29:30;36.08;;;32.28;;
22046;SDS011;11187;49.412;20.956;2023-08-20T00:32:04;37.28;;;33.35;;
22046;SDS011;11187;49.412;20.956;2023-08-20T00:34:50;44.97;;;34.10;;
22046;SDS011;11187;49.412;20.956;2023-08-20T00:37:24;45.38;;;33.67;;
22046;SDS011;11187;49.412;20.956;2023-08-20T00:40:18;37.10;;;33.05;;
22046;SDS011;11187;49.412;20.956;2023-08-20T00:43:12;34.83;;;31.63;;
22046;SDS011;11187;49.412;20.956;2023-08-20T00:46:06;35.05;;;31.90;;
22046;SDS011;11187;49.412;20.956;2023-08-20T00:48:40;35.00;;;31.77;;
22046;SDS011;11187;49.412;20.956;2023-08-20T00:51:26;35.78;;;31.75;;
22046;SDS011;11187;49.412;20.956;2023-08-20T00:54:01;34.05;;;30.88;;
22046;SDS011;11187;49.412;20.956;2023-08-20T00:56:49;35.63;;;32.17;;
22046;SDS011;11187;49.412;20.956;2023-08-20T00:59:23;34.70;;;31.48;;
22046;SDS011;11187;49.412;20.956;2023-08-20T01:02:10;34.83;;;31.42;;
22046;SDS011;11187;49.412;20.956;2023-08-20T01:04:43;33.35;;;30.42;;
22046;SDS011;11187;49.412;20.956;2023-08-20T01:13:14;34.65;;;31.40;;
22046;SDS011;11187;49.412;20.956;2023-08-20T01:16:08;35.25;;;31.40;;
22046;SDS011;11187;49.412;20.956;2023-08-20T01:19:02;44.70;;;30.63;;
22046;SDS011;11187;49.412;20.956;2023-08-20T01:28:31;32.45;;;29.63;;
22046;SDS011;11187;49.412;20.956;2023-08-20T01:30:53;35.58;;;31.90;;
22046;SDS011;11187;49.412;20.956;2023-08-20T01:33:49;42.08;;;32.90;;
22046;SDS011;11187;49.412;20.956;2023-08-20T01:36:43;34.63;;;31.60;;
22046;SDS011;11187;49.412;20.956;2023-08-20T01:39:16;39.28;;;32.90;;
22046;SDS011;11187;49.412;20.956;2023-08-20T01:42:03;33.85;;;30.52;;
22046;SDS011;11187;49.412;20.956;2023-08-20T01:44:36;34.38;;;31.02;;
22046;SDS011;11187;49.412;20.956;2023-08-20T01:47:23;34.50;;;30.63;;
22046;SDS011;11187;49.412;20.956;2023-08-20T01:49:57;31.73;;;29.23;;
22046;SDS011;11187;49.412;20.956;2023-08-20T01:52:46;31.70;;;29.15;;
22046;SDS011;11187;49.412;20.956;2023-08-20T01:55:19;33.38;;;30.23;;
22046;SDS011;11187;49.412;20.956;2023-08-20T01:58:10;40.05;;;30.02;;
22046;SDS011;11187;49.412;20.956;2023-08-20T02:00:45;34.45;;;31.27;;
22046;SDS011;11187;49.412;20.956;2023-08-20T02:03:32;35.60;;;31.35;;
22046;SDS011;11187;49.412;20.956;2023-08-20T02:06:05;33.90;;;30.90;;
22046;SDS011;11187;49.412;20.956;2023-08-20T02:08:52;34.63;;;31.45;;
22046;SDS011;11187;49.412;20.956;2023-08-20T02:11:25;39.67;;;30.02;;
22046;SDS011;11187;49.412;20.956;2023-08-20T02:14:15;39.75;;;30.73;;
22046;SDS011;11187;49.412;20.956;2023-08-20T02:16:49;40.05;;;30.77;;
22046;SDS011;11187;49.412;20.956;2023-08-20T02:19:35;35.00;;;31.35;;
22046;SDS011;11187;49.412;20.956;2023-08-20T02:22:09;33.15;;;29.65;;
22046;SDS011;11187;49.412;20.956;2023-08-20T02:24:55;33.17;;;30.27;;
22046;SDS011;11187;49.412;20.956;2023-08-20T02:27:29;32.97;;;30.00;;
22046;SDS011;11187;49.412;20.956;2023-08-20T02:30:15;32.78;;;29.85;;
22046;SDS011;11187;49.412;20.956;2023-08-20T02:32:49;44.08;;;29.73;;
22046;SDS011;11187;49.412;20.956;2023-08-20T02:35:38;33.83;;;30.52;;
22046;SDS011;11187;49.412;20.956;2023-08-20T02:38:12;47.03;;;31.60;;
22046;SDS011;11187;49.412;20.956;2023-08-20T02:40:58;33.83;;;30.67;;
22046;SDS011;11187;49.412;20.956;2023-08-20T02:43:32;34.28;;;30.98;;
22046;SDS011;11187;49.412;20.956;2023-08-20T02:46:18;40.90;;;29.73;;
22046;SDS011;11187;49.412;20.956;2023-08-20T02:48:52;30.60;;;28.33;;
22046;SDS011;11187;49.412;20.956;2023-08-20T02:51:45;34.05;;;30.35;;
22046;SDS011;11187;49.412;20.956;2023-08-20T02:54:39;32.55;;;29.55;;
22046;SDS011;11187;49.412;20.956;2023-08-20T02:57:33;31.50;;;28.95;;
22046;SDS011;11187;49.412;20.956;2023-08-20T03:00:07;33.00;;;30.63;;
22046;SDS011;11187;49.412;20.956;2023-08-20T03:03:01;34.42;;;31.33;;
22046;SDS011;11187;49.412;20.956;2023-08-20T03:05:38;35.42;;;32.15;;
22046;SDS011;11187;49.412;20.956;2023-08-20T03:08:24;34.33;;;31.80;;
22046;SDS011;11187;49.412;20.956;2023-08-20T03:10:59;37.40;;;30.52;;
22046;SDS011;11187;49.412;20.956;2023-08-20T03:13:52;33.53;;;30.45;;
22046;SDS011;11187;49.412;20.956;2023-08-20T03:16:46;32.55;;;29.15;;
22046;SDS011;11187;49.412;20.956;2023-08-20T03:19:53;31.75;;;28.55;;
22046;SDS011;11187;49.412;20.956;2023-08-20T03:22:55;37.38;;;28.95;;
22046;SDS011;11187;49.412;20.956;2023-08-20T03:25:30;40.47;;;29.90;;
22046;SDS011;11187;49.412;20.956;2023-08-20T03:28:18;34.20;;;29.48;;
22046;SDS011;11187;49.412;20.956;2023-08-20T03:30:54;33.65;;;30.05;;
22046;SDS011;11187;49.412;20.956;2023-08-20T03:33:48;34.40;;;31.70;;
22046;SDS011;11187;49.412;20.956;2023-08-20T03:36:21;35.17;;;31.45;;
22046;SDS011;11187;49.412;20.956;2023-08-20T03:39:07;34.75;;;31.23;;
22046;SDS011;11187;49.412;20.956;2023-08-20T03:41:42;35.30;;;32.45;;
22046;SDS011;11187;49.412;20.956;2023-08-20T03:44:28;36.50;;;33.03;;
22046;SDS011;11187;49.412;20.956;2023-08-20T03:47:03;34.30;;;31.27;;
22046;SDS011;11187;49.412;20.956;2023-08-20T03:49:52;33.20;;;30.20;;
22046;SDS011;11187;49.412;20.956;2023-08-20T03:52:29;32.42;;;29.52;;
22046;SDS011;11187;49.412;20.956;2023-08-20T03:55:15;33.63;;;29.38;;
22046;SDS011;11187;49.412;20.956;2023-08-20T03:57:49;35.55;;;29.23;;
22046;SDS011;11187;49.412;20.956;2023-08-20T04:00:43;32.92;;;29.50;;
22046;SDS011;11187;49.412;20.956;2023-08-20T04:03:37;33.30;;;30.50;;
22046;SDS011;11187;49.412;20.956;2023-08-20T04:06:11;33.40;;;30.38;;
22046;SDS011;11187;49.412;20.956;2023-08-20T04:08:57;32.05;;;29.55;;
22046;SDS011;11187;49.412;20.956;2023-08-20T04:11:31;35.35;;;28.73;;
22046;SDS011;11187;49.412;20.956;2023-08-20T04:14:13;31.58;;;28.88;;
22046;SDS011;11187;49.412;20.956;2023-08-20T04:16:55;32.65;;;29.75;;
22046;SDS011;11187;49.412;20.956;2023-08-20T04:19:49;34.90;;;32.00;;
22046;SDS011;11187;49.412;20.956;2023-08-20T04:22:43;38.28;;;32.13;;
22046;SDS011;11187;49.412;20.956;2023-08-20T04:25:17;35.50;;;31.88;;
22046;SDS011;11187;49.412;20.956;2023-08-20T04:28:03;51.75;;;30.42;;
22046;SDS011;11187;49.412;20.956;2023-08-20T04:30:37;36.15;;;31.10;;
22046;SDS011;11187;49.412;20.956;2023-08-20T04:33:32;33.55;;;30.45;;
22046;SDS011;11187;49.412;20.956;2023-08-20T04:36:26;32.80;;;30.13;;
22046;SDS011;11187;49.412;20.956;2023-08-20T04:39:20;37.05;;;30.02;;
22046;SDS011;11187;49.412;20.956;2023-08-20T04:41:54;30.77;;;28.48;;
22046;SDS011;11187;49.412;20.956;2023-08-20T04:44:40;32.25;;;29.55;;
22046;SDS011;11187;49.412;20.956;2023-08-20T04:47:14;30.92;;;28.55;;
22046;SDS011;11187;49.412;20.956;2023-08-20T04:50:07;40.15;;;29.30;;
22046;SDS011;11187;49.412;20.956;2023-08-20T04:52:41;32.35;;;29.35;;
22046;SDS011;11187;49.412;20.956;2023-08-20T04:55:27;33.58;;;30.85;;
22046;SDS011;11187;49.412;20.956;2023-08-20T04:58:01;32.60;;;29.60;;
22046;SDS011;11187;49.412;20.956;2023-08-20T05:00:47;30.88;;;28.60;;
22046;SDS011;11187;49.412;20.956;2023-08-20T05:03:21;32.40;;;30.00;;
22046;SDS011;11187;49.412;20.956;2023-08-20T05:06:14;30.67;;;28.33;;
22046;SDS011;11187;49.412;20.956;2023-08-20T05:09:08;29.80;;;27.70;;
22046;SDS011;11187;49.412;20.956;2023-08-20T05:11:42;30.20;;;28.10;;
22046;SDS011;11187;49.412;20.956;2023-08-20T05:14:29;30.42;;;27.98;;
22046;SDS011;11187;49.412;20.956;2023-08-20T05:17:03;29.40;;;27.40;;
22046;SDS011;11187;49.412;20.956;2023-08-20T05:19:49;30.73;;;28.50;;
22046;SDS011;11187;49.412;20.956;2023-08-20T05:22:23;30.48;;;27.65;;
22046;SDS011;11187;49.412;20.956;2023-08-20T05:25:09;31.75;;;29.48;;
22046;SDS011;11187;49.412;20.956;2023-08-20T05:27:43;33.42;;;29.98;;
22046;SDS011;11187;49.412;20.956;2023-08-20T05:30:36;33.05;;;30.30;;
22046;SDS011;11187;49.412;20.956;2023-08-20T05:33:10;32.63;;;30.00;;
22046;SDS011;11187;49.412;20.956;2023-08-20T05:35:57;31.83;;;29.17;;
22046;SDS011;11187;49.412;20.956;2023-08-20T05:38:32;31.77;;;28.85;;
22046;SDS011;11187;49.412;20.956;2023-08-20T05:41:25;31.70;;;28.55;;
22046;SDS011;11187;49.412;20.956;2023-08-20T05:44:19;36.92;;;30.50;;
22046;SDS011;11187;49.412;20.956;2023-08-20T05:46:53;36.35;;;33.38;;
22046;SDS011;11187;49.412;20.956;2023-08-20T05:49:47;32.42;;;30.17;;
22046;SDS011;11187;49.412;20.956;2023-08-20T05:52:21;32.30;;;30.00;;
22046;SDS011;11187;49.412;20.956;2023-08-20T05:55:16;31.85;;;28.80;;
22046;SDS011;11187;49.412;20.956;2023-08-20T05:58:10;30.17;;;27.92;;
22046;SDS011;11187;49.412;20.956;2023-08-20T06:00:52;31.67;;;28.85;;
22046;SDS011;11187;49.412;20.956;2023-08-20T06:03:40;32.70;;;30.10;;
22046;SDS011;11187;49.412;20.956;2023-08-20T06:06:15;32.75;;;30.30;;
22046;SDS011;11187;49.412;20.956;2023-08-20T06:09:02;33.60;;;31.20;;
22046;SDS011;11187;49.412;20.956;2023-08-20T06:11:36;33.60;;;30.52;;
22046;SDS011;11187;49.412;20.956;2023-08-20T06:14:22;32.15;;;29.65;;
22046;SDS011;11187;49.412;20.956;2023-08-20T06:16:57;30.42;;;27.98;;
22046;SDS011;11187;49.412;20.956;2023-08-20T06:19:44;32.70;;;30.13;;
22046;SDS011;11187;49.412;20.956;2023-08-20T06:22:19;32.35;;;30.05;;
22046;SDS011;11187;49.412;20.956;2023-08-20T06:25:06;31.90;;;29.50;;
22046;SDS011;11187;49.412;20.956;2023-08-20T06:27:41;32.08;;;29.45;;
22046;SDS011;11187;49.412;20.956;2023-08-20T06:30:36;33.85;;;31.40;;
22046;SDS011;11187;49.412;20.956;2023-08-20T06:33:11;29.95;;;27.92;;
22046;SDS011;11187;49.412;20.956;2023-08-20T06:35:58;31.50;;;28.92;;
22046;SDS011;11187;49.412;20.956;2023-08-20T06:38:33;28.10;;;26.00;;
22046;SDS011;11187;49.412;20.956;2023-08-20T06:41:20;30.50;;;28.38;;
22046;SDS011;11187;49.412;20.956;2023-08-20T06:43:55;29.60;;;27.15;;
22046;SDS011;11187;49.412;20.956;2023-08-20T06:46:42;31.55;;;29.35;;
22046;SDS011;11187;49.412;20.956;2023-08-20T06:49:16;30.33;;;28.33;;
22046;SDS011;11187;49.412;20.956;2023-08-20T06:52:09;32.97;;;30.58;;
22046;SDS011;11187;49.412;20.956;2023-08-20T06:55:03;31.42;;;29.23;;
22046;SDS011;11187;49.412;20.956;2023-08-20T06:57:37;29.33;;;27.33;;
22046;SDS011;11187;49.412;20.956;2023-08-20T07:00:23;27.98;;;26.08;;
22046;SDS011;11187;49.412;20.956;2023-08-20T07:02:57;27.42;;;25.30;;
22046;SDS011;11187;49.412;20.956;2023-08-20T07:05:43;29.08;;;26.52;;
22046;SDS011;11187;49.412;20.956;2023-08-20T07:08:17;27.15;;;24.73;;
22046;SDS011;11187;49.412;20.956;2023-08-20T07:11:10;28.40;;;25.77;;
22046;SDS011;11187;49.412;20.956;2023-08-20T07:14:04;26.40;;;24.38;;
22046;SDS011;11187;49.412;20.956;2023-08-20T07:16:38;29.30;;;27.10;;
22046;SDS011;11187;49.412;20.956;2023-08-20T07:19:31;28.05;;;25.60;;
22046;SDS011;11187;49.412;20.956;2023-08-20T07:22:25;26.52;;;24.52;;
22046;SDS011;11187;49.412;20.956;2023-08-20T07:24:59;29.20;;;26.80;;
22046;SDS011;11187;49.412;20.956;2023-08-20T07:27:45;26.77;;;24.88;;
22046;SDS011;11187;49.412;20.956;2023-08-20T07:30:19;25.50;;;23.60;;
22046;SDS011;11187;49.412;20.956;2023-08-20T07:33:14;28.45;;;26.35;;
22046;SDS011;11187;49.412;20.956;2023-08-20T07:36:09;29.25;;;26.92;;
22046;SDS011;11187;49.412;20.956;2023-08-20T07:39:03;28.05;;;25.75;;
22046;SDS011;11187;49.412;20.956;2023-08-20T07:41:44;27.95;;;25.85;;
22046;SDS011;11187;49.412;20.956;2023-08-20T07:44:30;26.83;;;24.67;;
22046;SDS011;11187;49.412;20.956;2023-08-20T07:47:04;26.88;;;24.65;;
22046;SDS011;11187;49.412;20.956;2023-08-20T07:49:52;29.88;;;27.05;;
22046;SDS011;11187;49.412;20.956;2023-08-20T07:52:26;29.85;;;27.52;;
22046;SDS011;11187;49.412;20.956;2023-08-20T07:55:19;28.25;;;25.95;;
22046;SDS011;11187;49.412;20.956;2023-08-20T07:58:13;29.63;;;27.10;;
22046;SDS011;11187;49.412;20.956;2023-08-20T08:00:49;30.00;;;27.70;;
22046;SDS011;11187;49.412;20.956;2023-08-20T08:03:36;30.33;;;27.92;;
22046;SDS011;11187;49.412;20.956;2023-08-20T08:06:10;29.98;;;27.77;;
22046;SDS011;11187;49.412;20.956;2023-08-20T08:09:03;29.80;;;27.23;;
22046;SDS011;11187;49.412;20.956;2023-08-20T08:11:48;29.88;;;27.38;;
22046;SDS011;11187;49.412;20.956;2023-08-20T08:14:44;30.83;;;28.17;;
22046;SDS011;11187;49.412;20.956;2023-08-20T08:17:18;30.08;;;27.38;;
22046;SDS011;11187;49.412;20.956;2023-08-20T08:20:07;29.65;;;27.02;;
22046;SDS011;11187;49.412;20.956;2023-08-20T08:22:44;29.40;;;26.95;;
22046;SDS011;11187;49.412;20.956;2023-08-20T08:25:30;29.45;;;27.00;;
22046;SDS011;11187;49.412;20.956;2023-08-20T08:28:04;27.63;;;25.13;;
22046;SDS011;11187;49.412;20.956;2023-08-20T08:30:58;29.17;;;26.77;;
22046;SDS011;11187;49.412;20.956;2023-08-20T08:33:33;29.05;;;26.55;;
22046;SDS011;11187;49.412;20.956;2023-08-20T08:36:27;28.50;;;26.05;;
22046;SDS011;11187;49.412;20.956;2023-08-20T08:39:03;30.98;;;28.02;;
22046;SDS011;11187;49.412;20.956;2023-08-20T08:42:00;29.83;;;27.00;;
22046;SDS011;11187;49.412;20.956;2023-08-20T08:44:38;30.45;;;28.05;;
22046;SDS011;11187;49.412;20.956;2023-08-20T08:47:25;32.25;;;29.20;;
22046;SDS011;11187;49.412;20.956;2023-08-20T08:50:00;31.33;;;28.45;;
22046;SDS011;11187;49.412;20.956;2023-08-20T08:52:47;32.55;;;29.60;;
22046;SDS011;11187;49.412;20.956;2023-08-20T08:55:24;30.83;;;28.17;;
22046;SDS011;11187;49.412;20.956;2023-08-20T08:58:10;32.78;;;29.60;;
22046;SDS011;11187;49.412;20.956;2023-08-20T09:00:44;31.83;;;28.73;;
22046;SDS011;11187;49.412;20.956;2023-08-20T09:03:37;30.48;;;27.75;;
22046;SDS011;11187;49.412;20.956;2023-08-20T09:06:44;32.22;;;29.48;;
22046;SDS011;11187;49.412;20.956;2023-08-20T09:09:21;31.05;;;27.73;;
22046;SDS011;11187;49.412;20.956;2023-08-20T09:12:17;31.92;;;28.55;;
22046;SDS011;11187;49.412;20.956;2023-08-20T09:14:52;30.77;;;28.25;;
22046;SDS011;11187;49.412;20.956;2023-08-20T09:17:46;31.83;;;28.70;;
22046;SDS011;11187;49.412;20.956;2023-08-20T09:20:40;31.00;;;28.23;;
22046;SDS011;11187;49.412;20.956;2023-08-20T09:23:14;31.10;;;28.20;;
22046;SDS011;11187;49.412;20.956;2023-08-20T09:26:04;31.85;;;29.20;;
22046;SDS011;11187;49.412;20.956;2023-08-20T09:28:41;30.13;;;27.05;;
22046;SDS011;11187;49.412;20.956;2023-08-20T09:31:37;32.05;;;29.15;;
22046;SDS011;11187;49.412;20.956;2023-08-20T09:34:37;32.55;;;29.42;;
22046;SDS011;11187;49.412;20.956;2023-08-20T09:37:14;32.00;;;29.15;;
22046;SDS011;11187;49.412;20.956;2023-08-20T09:40:10;30.77;;;27.75;;
22046;SDS011;11187;49.412;20.956;2023-08-20T09:43:03;30.38;;;27.75;;
22046;SDS011;11187;49.412;20.956;2023-08-20T09:45:41;32.53;;;29.58;;
22046;SDS011;11187;49.412;20.956;2023-08-20T09:48:30;31.63;;;28.70;;
22046;SDS011;11187;49.412;20.956;2023-08-20T09:51:10;31.67;;;28.77;;
22046;SDS011;11187;49.412;20.956;2023-08-20T09:54:12;31.58;;;28.77;;
22046;SDS011;11187;49.412;20.956;2023-08-20T09:57:14;33.40;;;30.30;;
22046;SDS011;11187;49.412;20.956;2023-08-20T09:59:58;34.10;;;31.30;;
22046;SDS011;11187;49.412;20.956;2023-08-20T10:02:57;30.85;;;28.15;;
22046;SDS011;11187;49.412;20.956;2023-08-20T10:05:32;33.33;;;30.30;;
22046;SDS011;11187;49.412;20.956;2023-08-20T10:08:19;34.08;;;30.95;;
22046;SDS011;11187;49.412;20.956;2023-08-20T10:10:53;34.50;;;31.45;;
22046;SDS011;11187;49.412;20.956;2023-08-20T10:13:39;33.40;;;30.25;;
22046;SDS011;11187;49.412;20.956;2023-08-20T10:16:13;32.83;;;29.77;;
22046;SDS011;11187;49.412;20.956;2023-08-20T10:19:07;32.83;;;29.98;;
22046;SDS011;11187;49.412;20.956;2023-08-20T10:22:02;32.90;;;30.17;;
22046;SDS011;11187;49.412;20.956;2023-08-20T10:24:57;30.90;;;28.33;;
22046;SDS011;11187;49.412;20.956;2023-08-20T10:27:52;32.38;;;29.55;;
22046;SDS011;11187;49.412;20.956;2023-08-20T10:33:59;30.98;;;28.42;;
22046;SDS011;11187;49.412;20.956;2023-08-20T10:36:53;34.13;;;30.98;;
22046;SDS011;11187;49.412;20.956;2023-08-20T10:39:27;31.80;;;28.90;;
22046;SDS011;11187;49.412;20.956;2023-08-20T10:45:05;34.25;;;31.02;;
22046;SDS011;11187;49.412;20.956;2023-08-20T10:47:52;30.85;;;28.30;;
22046;SDS011;11187;49.412;20.956;2023-08-20T10:50:26;31.75;;;28.85;;
22046;SDS011;11187;49.412;20.956;2023-08-20T10:53:16;29.92;;;27.30;;
22046;SDS011;11187;49.412;20.956;2023-08-20T10:55:50;29.90;;;27.35;;
22046;SDS011;11187;49.412;20.956;2023-08-20T10:58:45;31.25;;;28.40;;
22046;SDS011;11187;49.412;20.956;2023-08-20T11:01:39;31.08;;;28.48;;
22046;SDS011;11187;49.412;20.956;2023-08-20T11:04:15;31.35;;;28.75;;
22046;SDS011;11187;49.412;20.956;2023-08-20T11:07:09;31.38;;;28.65;;
22046;SDS011;11187;49.412;20.956;2023-08-20T11:09:43;32.50;;;29.17;;
22046;SDS011;11187;49.412;20.956;2023-08-20T11:12:37;32.08;;;29.27;;
22046;SDS011;11187;49.412;20.956;2023-08-20T11:15:11;31.80;;;29.02;;
22046;SDS011;11187;49.412;20.956;2023-08-20T11:18:05;31.13;;;28.42;;
22046;SDS011;11187;49.412;20.956;2023-08-20T11:20:59;32.20;;;29.50;;
22046;SDS011;11187;49.412;20.956;2023-08-20T11:23:52;32.47;;;29.67;;
22046;SDS011;11187;49.412;20.956;2023-08-20T11:26:28;30.48;;;28.02;;
22046;SDS011;11187;49.412;20.956;2023-08-20T11:29:16;30.45;;;27.90;;
22046;SDS011;11187;49.412;20.956;2023-08-20T11:31:55;30.15;;;27.67;;
22046;SDS011;11187;49.412;20.956;2023-08-20T11:34:49;30.35;;;27.70;;
22046;SDS011;11187;49.412;20.956;2023-08-20T11:37:23;31.63;;;28.50;;
22046;SDS011;11187;49.412;20.956;2023-08-20T11:40:09;29.85;;;27.35;;
22046;SDS011;11187;49.412;20.956;2023-08-20T11:42:43;30.83;;;28.27;;
22046;SDS011;11187;49.412;20.956;2023-08-20T11:45:30;32.78;;;29.70;;
22046;SDS011;11187;49.412;20.956;2023-08-20T11:48:05;30.95;;;28.27;;
22046;SDS011;11187;49.412;20.956;2023-08-20T11:51:01;29.80;;;27.23;;
22046;SDS011;11187;49.412;20.956;2023-08-20T11:53:56;30.70;;;28.05;;
22046;SDS011;11187;49.412;20.956;2023-08-20T11:56:30;30.00;;;27.45;;
22046;SDS011;11187;49.412;20.956;2023-08-20T11:59:25;29.70;;;27.20;;
22046;SDS011;11187;49.412;20.956;2023-08-20T12:02:00;33.85;;;30.77;;
22046;SDS011;11187;49.412;20.956;2023-08-20T12:04:50;33.05;;;30.15;;
22046;SDS011;11187;49.412;20.956;2023-08-20T12:07:25;35.05;;;32.00;;
22046;SDS011;11187;49.412;20.956;2023-08-20T12:10:20;33.50;;;30.67;;
22046;SDS011;11187;49.412;20.956;2023-08-20T12:12:55;30.42;;;27.90;;
22046;SDS011;11187;49.412;20.956;2023-08-20T12:15:43;30.25;;;27.50;;
22046;SDS011;11187;49.412;20.956;2023-08-20T12:18:17;30.13;;;27.45;;
22046;SDS011;11187;49.412;20.956;2023-08-20T12:21:10;28.90;;;26.60;;
22046;SDS011;11187;49.412;20.956;2023-08-20T12:23:44;30.48;;;27.77;;
22046;SDS011;11187;49.412;20.956;2023-08-20T12:26:38;28.55;;;26.30;;
22046;SDS011;11187;49.412;20.956;2023-08-20T12:29:12;29.08;;;26.77;;
22046;SDS011;11187;49.412;20.956;2023-08-20T12:32:05;29.02;;;26.67;;
22046;SDS011;11187;49.412;20.956;2023-08-20T12:34:59;29.90;;;27.50;;
22046;SDS011;11187;49.412;20.956;2023-08-20T12:37:33;28.52;;;26.08;;
22046;SDS011;11187;49.412;20.956;2023-08-20T12:40:20;30.90;;;28.35;;
22046;SDS011;11187;49.412;20.956;2023-08-20T12:42:53;28.90;;;26.60;;
22046;SDS011;11187;49.412;20.956;2023-08-20T12:45:39;28.10;;;25.80;;
22046;SDS011;11187;49.412;20.956;2023-08-20T12:48:13;28.15;;;25.67;;
22046;SDS011;11187;49.412;20.956;2023-08-20T12:50:59;25.83;;;23.77;;
22046;SDS011;11187;49.412;20.956;2023-08-20T12:53:33;24.85;;;22.92;;
22046;SDS011;11187;49.412;20.956;2023-08-20T12:56:26;25.75;;;23.75;;
22046;SDS011;11187;49.412;20.956;2023-08-20T12:59:20;23.00;;;21.20;;
22046;SDS011;11187;49.412;20.956;2023-08-20T13:02:14;23.70;;;21.65;;
22046;SDS011;11187;49.412;20.956;2023-08-20T13:05:09;27.38;;;25.08;;
22046;SDS011;11187;49.412;20.956;2023-08-20T13:07:44;25.42;;;23.08;;
22046;SDS011;11187;49.412;20.956;2023-08-20T13:10:32;26.38;;;24.17;;
22046;SDS011;11187;49.412;20.956;2023-08-20T13:13:05;25.55;;;23.27;;
22046;SDS011;11187;49.412;20.956;2023-08-20T13:15:59;26.95;;;24.83;;
22046;SDS011;11187;49.412;20.956;2023-08-20T13:18:33;26.23;;;24.02;;
22046;SDS011;11187;49.412;20.956;2023-08-20T13:21:20;26.50;;;24.40;;
22046;SDS011;11187;49.412;20.956;2023-08-20T13:23:54;26.10;;;23.88;;
22046;SDS011;11187;49.412;20.956;2023-08-20T13:26:41;25.77;;;23.67;;
22046;SDS011;11187;49.412;20.956;2023-08-20T13:29:14;24.23;;;22.00;;
22046;SDS011;11187;49.412;20.956;2023-08-20T13:32:00;26.08;;;23.88;;
22046;SDS011;11187;49.412;20.956;2023-08-20T13:34:34;25.08;;;23.00;;
22046;SDS011;11187;49.412;20.956;2023-08-20T13:37:20;24.80;;;22.80;;
22046;SDS011;11187;49.412;20.956;2023-08-20T13:39:54;27.25;;;24.98;;
22046;SDS011;11187;49.412;20.956;2023-08-20T13:42:48;25.30;;;23.35;;
22046;SDS011;11187;49.412;20.956;2023-08-20T13:45:21;22.73;;;20.90;;
22046;SDS011;11187;49.412;20.956;2023-08-20T13:48:15;24.40;;;22.45;;
22046;SDS011;11187;49.412;20.956;2023-08-20T13:51:09;23.70;;;21.65;;
22046;SDS011;11187;49.412;20.956;2023-08-20T13:53:42;28.13;;;25.95;;
22046;SDS011;11187;49.412;20.956;2023-08-20T13:56:36;25.45;;;23.40;;
22046;SDS011;11187;49.412;20.956;2023-08-20T13:59:09;25.92;;;23.48;;
22046;SDS011;11187;49.412;20.956;2023-08-20T14:02:04;25.55;;;23.55;;
22046;SDS011;11187;49.412;20.956;2023-08-20T14:04:37;27.77;;;25.38;;
22046;SDS011;11187;49.412;20.956;2023-08-20T14:07:24;24.90;;;22.90;;
22046;SDS011;11187;49.412;20.956;2023-08-20T14:09:57;24.67;;;22.63;;
22046;SDS011;11187;49.412;20.956;2023-08-20T14:12:47;25.92;;;23.63;;
22046;SDS011;11187;49.412;20.956;2023-08-20T14:15:23;24.90;;;22.80;;
22046;SDS011;11187;49.412;20.956;2023-08-20T14:18:17;27.58;;;25.30;;
22046;SDS011;11187;49.412;20.956;2023-08-20T14:21:11;26.33;;;24.13;;
22046;SDS011;11187;49.412;20.956;2023-08-20T14:23:44;28.45;;;26.25;;
22046;SDS011;11187;49.412;20.956;2023-08-20T14:26:31;26.55;;;24.30;;
22046;SDS011;11187;49.412;20.956;2023-08-20T14:29:04;26.10;;;24.02;;
22046;SDS011;11187;49.412;20.956;2023-08-20T14:31:58;27.23;;;25.02;;
22046;SDS011;11187;49.412;20.956;2023-08-20T14:34:31;27.77;;;25.40;;
22046;SDS011;11187;49.412;20.956;2023-08-20T14:37:25;28.25;;;25.83;;
22046;SDS011;11187;49.412;20.956;2023-08-20T14:39:59;28.05;;;25.48;;
22046;SDS011;11187;49.412;20.956;2023-08-20T14:42:47;29.88;;;27.48;;
22046;SDS011;11187;49.412;20.956;2023-08-20T14:45:20;28.55;;;26.17;;
22046;SDS011;11187;49.412;20.956;2023-08-20T14:48:14;29.20;;;26.70;;
22046;SDS011;11187;49.412;20.956;2023-08-20T14:50:47;27.45;;;25.13;;
22046;SDS011;11187;49.412;20.956;2023-08-20T14:53:34;27.48;;;25.38;;
22046;SDS011;11187;49.412;20.956;2023-08-20T14:56:07;27.58;;;25.13;;
22046;SDS011;11187;49.412;20.956;2023-08-20T14:59:01;27.35;;;24.83;;
22046;SDS011;11187;49.412;20.956;2023-08-20T15:01:34;27.23;;;24.92;;
22046;SDS011;11187;49.412;20.956;2023-08-20T15:04:28;26.98;;;24.45;;
22046;SDS011;11187;49.412;20.956;2023-08-20T15:07:22;27.80;;;25.10;;
22046;SDS011;11187;49.412;20.956;2023-08-20T15:10:16;26.92;;;24.52;;
22046;SDS011;11187;49.412;20.956;2023-08-20T15:12:49;28.90;;;26.23;;
22046;SDS011;11187;49.412;20.956;2023-08-20T15:15:36;27.80;;;25.40;;
22046;SDS011;11187;49.412;20.956;2023-08-20T15:18:09;29.63;;;27.10;;
22046;SDS011;11187;49.412;20.956;2023-08-20T15:21:03;28.70;;;26.25;;
22046;SDS011;11187;49.412;20.956;2023-08-20T15:23:57;27.90;;;25.60;;
22046;SDS011;11187;49.412;20.956;2023-08-20T15:26:51;28.20;;;26.00;;
22046;SDS011;11187;49.412;20.956;2023-08-20T15:29:45;28.45;;;26.10;;
22046;SDS011;11187;49.412;20.956;2023-08-20T15:32:18;28.00;;;25.67;;
22046;SDS011;11187;49.412;20.956;2023-08-20T15:35:07;27.25;;;24.95;;
22046;SDS011;11187;49.412;20.956;2023-08-20T15:37:40;27.40;;;24.80;;
22046;SDS011;11187;49.412;20.956;2023-08-20T15:40:27;28.45;;;26.00;;
22046;SDS011;11187;49.412;20.956;2023-08-20T15:43:00;26.45;;;24.13;;
22046;SDS011;11187;49.412;20.956;2023-08-20T15:45:47;28.25;;;25.95;;
22046;SDS011;11187;49.412;20.956;2023-08-20T15:48:20;28.13;;;25.20;;
22046;SDS011;11187;49.412;20.956;2023-08-20T15:51:07;26.63;;;24.08;;
22046;SDS011;11187;49.412;20.956;2023-08-20T15:53:40;26.67;;;24.27;;
22046;SDS011;11187;49.412;20.956;2023-08-20T15:56:27;27.20;;;24.75;;
22046;SDS011;11187;49.412;20.956;2023-08-20T15:59:00;27.02;;;24.30;;
22046;SDS011;11187;49.412;20.956;2023-08-20T16:01:47;29.38;;;26.35;;
22046;SDS011;11187;49.412;20.956;2023-08-20T16:04:20;27.90;;;25.20;;